sensor_id;sensor_type;location;lat;lon;timestamp;temperature;humidity
43991;DHT22;29654;50.784;20.604;2022-07-12T00:01:39;17.90;56.80
43991;DHT22;29654;50.784;20.604;2022-07-12T00:06:42;17.90;57.10
43991;DHT22;29654;50.784;20.604;2022-07-12T00:11:45;17.80;56.80
43991;DHT22;29654;50.784;20.604;2022-07-12T00:16:50;17.80;57.00
43991;DHT22;29654;50.784;20.604;2022-07-12T00:21:53;17.80;57.30
43991;DHT22;29654;50.784;20.604;2022-07-12T00:26:56;17.80;57.20
43991;DHT22;29654;50.784;20.604;2022-07-12T00:32:01;17.70;57.30
43991;DHT22;29654;50.784;20.604;2022-07-12T00:37:04;17.80;57.50
43991;DHT22;29654;50.784;20.604;2022-07-12T00:42:08;17.70;57.50
43991;DHT22;29654;50.784;20.604;2022-07-12T00:47:22;17.70;57.50
43991;DHT22;29654;50.784;20.604;2022-07-12T00:52:30;17.70;58.40
43991;DHT22;29654;50.784;20.604;2022-07-12T00:57:34;17.70;57.90
43991;DHT22;29654;50.784;20.604;2022-07-12T01:02:39;17.70;58.00
43991;DHT22;29654;50.784;20.604;2022-07-12T01:07:43;17.70;58.10
43991;DHT22;29654;50.784;20.604;2022-07-12T01:12:47;17.70;58.00
43991;DHT22;29654;50.784;20.604;2022-07-12T01:17:52;17.80;57.80
43991;DHT22;29654;50.784;20.604;2022-07-12T01:22:59;17.90;58.00
43991;DHT22;29654;50.784;20.604;2022-07-12T01:28:03;17.90;58.10
43991;DHT22;29654;50.784;20.604;2022-07-12T01:33:06;17.90;58.00
43991;DHT22;29654;50.784;20.604;2022-07-12T01:38:11;17.90;58.10
43991;DHT22;29654;50.784;20.604;2022-07-12T01:43:14;17.90;58.40
43991;DHT22;29654;50.784;20.604;2022-07-12T01:48:18;17.80;58.40
43991;DHT22;29654;50.784;20.604;2022-07-12T01:53:22;17.80;58.40
43991;DHT22;29654;50.784;20.604;2022-07-12T01:58:26;17.80;58.70
43991;DHT22;29654;50.784;20.604;2022-07-12T02:03:28;17.70;58.60
43991;DHT22;29654;50.784;20.604;2022-07-12T02:08:33;17.70;58.70
43991;DHT22;29654;50.784;20.604;2022-07-12T02:13:36;17.70;58.80
43991;DHT22;29654;50.784;20.604;2022-07-12T02:18:38;17.70;59.00
43991;DHT22;29654;50.784;20.604;2022-07-12T02:23:43;17.70;58.90
43991;DHT22;29654;50.784;20.604;2022-07-12T02:28:46;17.80;59.10
43991;DHT22;29654;50.784;20.604;2022-07-12T02:33:49;17.80;59.00
43991;DHT22;29654;50.784;20.604;2022-07-12T02:38:53;17.80;59.30
43991;DHT22;29654;50.784;20.604;2022-07-12T02:43:56;17.80;59.30
43991;DHT22;29654;50.784;20.604;2022-07-12T02:48:59;17.80;59.30
43991;DHT22;29654;50.784;20.604;2022-07-12T02:54:04;17.80;59.40
43991;DHT22;29654;50.784;20.604;2022-07-12T02:59:07;17.80;59.40
43991;DHT22;29654;50.784;20.604;2022-07-12T03:04:09;17.90;60.00
43991;DHT22;29654;50.784;20.604;2022-07-12T03:09:14;17.90;59.30
43991;DHT22;29654;50.784;20.604;2022-07-12T03:14:17;18.00;59.20
43991;DHT22;29654;50.784;20.604;2022-07-12T03:19:20;18.10;59.10
43991;DHT22;29654;50.784;20.604;2022-07-12T03:24:24;18.20;59.10
43991;DHT22;29654;50.784;20.604;2022-07-12T03:29:27;18.30;59.10
43991;DHT22;29654;50.784;20.604;2022-07-12T03:34:30;18.30;58.80
43991;DHT22;29654;50.784;20.604;2022-07-12T03:39:34;18.50;58.70
43991;DHT22;29654;50.784;20.604;2022-07-12T03:44:37;18.60;59.30
43991;DHT22;29654;50.784;20.604;2022-07-12T03:49:40;18.70;58.70
43991;DHT22;29654;50.784;20.604;2022-07-12T03:54:45;18.70;58.70
43991;DHT22;29654;50.784;20.604;2022-07-12T03:59:47;18.80;58.80
43991;DHT22;29654;50.784;20.604;2022-07-12T04:04:50;18.80;58.80
43991;DHT22;29654;50.784;20.604;2022-07-12T04:09:55;18.80;58.80
43991;DHT22;29654;50.784;20.604;2022-07-12T04:14:58;18.80;58.90
43991;DHT22;29654;50.784;20.604;2022-07-12T04:20:01;18.90;59.00
43991;DHT22;29654;50.784;20.604;2022-07-12T04:25:07;19.00;59.00
43991;DHT22;29654;50.784;20.604;2022-07-12T04:30:11;19.10;59.10
43991;DHT22;29654;50.784;20.604;2022-07-12T04:35:13;19.20;58.90
43991;DHT22;29654;50.784;20.604;2022-07-12T04:40:18;19.40;59.10
43991;DHT22;29654;50.784;20.604;2022-07-12T04:45:21;19.50;59.60
43991;DHT22;29654;50.784;20.604;2022-07-12T04:50:24;19.90;61.00
43991;DHT22;29654;50.784;20.604;2022-07-12T04:55:29;20.40;60.50
43991;DHT22;29654;50.784;20.604;2022-07-12T05:00:32;20.80;59.30
43991;DHT22;29654;50.784;20.604;2022-07-12T05:05:35;21.20;58.70
43991;DHT22;29654;50.784;20.604;2022-07-12T05:10:40;21.50;57.20
43991;DHT22;29654;50.784;20.604;2022-07-12T05:15:43;21.50;56.50
43991;DHT22;29654;50.784;20.604;2022-07-12T05:20:46;21.40;57.10
43991;DHT22;29654;50.784;20.604;2022-07-12T05:25:50;21.50;57.70
43991;DHT22;29654;50.784;20.604;2022-07-12T05:30:53;21.80;58.20
43991;DHT22;29654;50.784;20.604;2022-07-12T05:35:56;22.20;58.30
43991;DHT22;29654;50.784;20.604;2022-07-12T05:41:00;22.50;57.00
43991;DHT22;29654;50.784;20.604;2022-07-12T05:46:04;22.80;55.80
43991;DHT22;29654;50.784;20.604;2022-07-12T05:51:07;22.90;55.30
43991;DHT22;29654;50.784;20.604;2022-07-12T05:56:29;23.00;55.00
43991;DHT22;29654;50.784;20.604;2022-07-12T06:01:32;22.90;54.60
43991;DHT22;29654;50.784;20.604;2022-07-12T06:06:35;22.90;54.50
43991;DHT22;29654;50.784;20.604;2022-07-12T06:11:39;22.80;54.00
43991;DHT22;29654;50.784;20.604;2022-07-12T06:16:42;22.70;54.20
43991;DHT22;29654;50.784;20.604;2022-07-12T06:21:45;22.60;54.70
43991;DHT22;29654;50.784;20.604;2022-07-12T06:26:49;22.60;54.90
43991;DHT22;29654;50.784;20.604;2022-07-12T06:31:52;22.70;55.00
43991;DHT22;29654;50.784;20.604;2022-07-12T06:36:55;22.70;54.90
43991;DHT22;29654;50.784;20.604;2022-07-12T06:41:59;22.80;54.30
43991;DHT22;29654;50.784;20.604;2022-07-12T06:47:04;22.80;54.10
43991;DHT22;29654;50.784;20.604;2022-07-12T06:52:07;22.80;53.40
43991;DHT22;29654;50.784;20.604;2022-07-12T06:57:12;22.80;53.40
43991;DHT22;29654;50.784;20.604;2022-07-12T07:02:15;22.80;53.20
43991;DHT22;29654;50.784;20.604;2022-07-12T07:07:20;22.80;53.60
43991;DHT22;29654;50.784;20.604;2022-07-12T07:12:24;23.00;53.30
43991;DHT22;29654;50.784;20.604;2022-07-12T07:17:27;23.00;52.60
43991;DHT22;29654;50.784;20.604;2022-07-12T07:22:30;23.00;52.20
43991;DHT22;29654;50.784;20.604;2022-07-12T07:27:34;23.10;52.00
43991;DHT22;29654;50.784;20.604;2022-07-12T07:32:39;23.10;52.10
43991;DHT22;29654;50.784;20.604;2022-07-12T07:37:42;23.10;52.10
43991;DHT22;29654;50.784;20.604;2022-07-12T07:42:46;23.10;51.80
43991;DHT22;29654;50.784;20.604;2022-07-12T07:47:49;23.10;51.90
43991;DHT22;29654;50.784;20.604;2022-07-12T07:52:52;23.20;51.70
43991;DHT22;29654;50.784;20.604;2022-07-12T07:57:56;23.20;51.20
43991;DHT22;29654;50.784;20.604;2022-07-12T08:03:01;23.10;50.70
43991;DHT22;29654;50.784;20.604;2022-07-12T08:08:04;23.00;51.00
43991;DHT22;29654;50.784;20.604;2022-07-12T08:13:08;23.00;51.90
43991;DHT22;29654;50.784;20.604;2022-07-12T08:18:11;23.10;51.40
43991;DHT22;29654;50.784;20.604;2022-07-12T08:23:14;23.20;50.80
43991;DHT22;29654;50.784;20.604;2022-07-12T08:28:19;23.40;51.40
43991;DHT22;29654;50.784;20.604;2022-07-12T08:33:23;23.60;50.20
43991;DHT22;29654;50.784;20.604;2022-07-12T08:38:27;23.60;49.80
43991;DHT22;29654;50.784;20.604;2022-07-12T08:43:35;23.60;50.20
43991;DHT22;29654;50.784;20.604;2022-07-12T08:48:39;23.60;50.00
43991;DHT22;29654;50.784;20.604;2022-07-12T08:53:43;23.70;49.90
43991;DHT22;29654;50.784;20.604;2022-07-12T08:58:52;23.80;49.80
43991;DHT22;29654;50.784;20.604;2022-07-12T09:04:12;23.90;48.70
43991;DHT22;29654;50.784;20.604;2022-07-12T09:09:26;24.00;49.40
43991;DHT22;29654;50.784;20.604;2022-07-12T09:14:31;24.10;48.60
43991;DHT22;29654;50.784;20.604;2022-07-12T09:19:35;24.10;48.60
43991;DHT22;29654;50.784;20.604;2022-07-12T09:24:38;24.20;48.30
43991;DHT22;29654;50.784;20.604;2022-07-12T09:29:52;24.30;48.60
43991;DHT22;29654;50.784;20.604;2022-07-12T09:34:59;24.30;47.60
43991;DHT22;29654;50.784;20.604;2022-07-12T09:40:20;24.30;47.80
43991;DHT22;29654;50.784;20.604;2022-07-12T09:45:24;24.40;48.60
43991;DHT22;29654;50.784;20.604;2022-07-12T09:50:28;24.40;47.20
43991;DHT22;29654;50.784;20.604;2022-07-12T09:55:33;24.50;47.60
43991;DHT22;29654;50.784;20.604;2022-07-12T10:00:39;24.70;47.10
43991;DHT22;29654;50.784;20.604;2022-07-12T10:05:42;24.90;47.80
43991;DHT22;29654;50.784;20.604;2022-07-12T10:10:46;25.00;46.30
43991;DHT22;29654;50.784;20.604;2022-07-12T10:15:58;25.10;46.40
43991;DHT22;29654;50.784;20.604;2022-07-12T10:21:17;25.10;44.90
43991;DHT22;29654;50.784;20.604;2022-07-12T10:26:36;25.10;45.00
43991;DHT22;29654;50.784;20.604;2022-07-12T10:31:42;25.00;45.30
43991;DHT22;29654;50.784;20.604;2022-07-12T10:37:07;25.00;46.60
43991;DHT22;29654;50.784;20.604;2022-07-12T10:42:17;25.00;45.10
43991;DHT22;29654;50.784;20.604;2022-07-12T10:47:21;25.00;45.80
43991;DHT22;29654;50.784;20.604;2022-07-12T10:52:25;24.90;46.20
43991;DHT22;29654;50.784;20.604;2022-07-12T10:57:39;25.00;46.50
43991;DHT22;29654;50.784;20.604;2022-07-12T11:02:45;25.00;45.20
43991;DHT22;29654;50.784;20.604;2022-07-12T11:07:48;25.10;45.90
43991;DHT22;29654;50.784;20.604;2022-07-12T11:12:51;25.20;46.40
43991;DHT22;29654;50.784;20.604;2022-07-12T11:17:56;25.30;45.30
43991;DHT22;29654;50.784;20.604;2022-07-12T11:23:00;25.40;45.00
43991;DHT22;29654;50.784;20.604;2022-07-12T11:28:03;25.40;44.60
43991;DHT22;29654;50.784;20.604;2022-07-12T11:33:07;25.40;45.10
43991;DHT22;29654;50.784;20.604;2022-07-12T11:38:11;25.40;45.30
43991;DHT22;29654;50.784;20.604;2022-07-12T11:43:13;25.30;45.60
43991;DHT22;29654;50.784;20.604;2022-07-12T11:48:19;25.20;45.60
43991;DHT22;29654;50.784;20.604;2022-07-12T11:53:24;25.20;45.30
43991;DHT22;29654;50.784;20.604;2022-07-12T11:58:29;25.20;45.60
43991;DHT22;29654;50.784;20.604;2022-07-12T12:03:42;25.20;45.70
43991;DHT22;29654;50.784;20.604;2022-07-12T12:08:46;25.30;46.00
43991;DHT22;29654;50.784;20.604;2022-07-12T12:13:56;25.40;46.20
43991;DHT22;29654;50.784;20.604;2022-07-12T12:19:01;25.60;45.60
43991;DHT22;29654;50.784;20.604;2022-07-12T12:24:13;25.90;45.60
43991;DHT22;29654;50.784;20.604;2022-07-12T12:29:16;26.00;43.70
43991;DHT22;29654;50.784;20.604;2022-07-12T12:34:20;25.90;44.10
43991;DHT22;29654;50.784;20.604;2022-07-12T12:39:30;25.90;44.30
43991;DHT22;29654;50.784;20.604;2022-07-12T12:44:34;25.70;43.10
43991;DHT22;29654;50.784;20.604;2022-07-12T12:49:48;25.70;44.20
43991;DHT22;29654;50.784;20.604;2022-07-12T12:54:52;25.80;43.40
43991;DHT22;29654;50.784;20.604;2022-07-12T12:59:55;26.00;44.20
43991;DHT22;29654;50.784;20.604;2022-07-12T13:04:59;26.00;43.40
43991;DHT22;29654;50.784;20.604;2022-07-12T13:10:03;26.00;43.30
43991;DHT22;29654;50.784;20.604;2022-07-12T13:15:07;25.90;43.60
43991;DHT22;29654;50.784;20.604;2022-07-12T13:20:12;25.80;43.40
43991;DHT22;29654;50.784;20.604;2022-07-12T13:25:16;25.80;44.00
43991;DHT22;29654;50.784;20.604;2022-07-12T13:30:20;25.90;44.20
43991;DHT22;29654;50.784;20.604;2022-07-12T13:35:24;26.10;44.20
43991;DHT22;29654;50.784;20.604;2022-07-12T13:40:30;26.30;43.90
43991;DHT22;29654;50.784;20.604;2022-07-12T13:45:33;26.50;43.70
43991;DHT22;29654;50.784;20.604;2022-07-12T13:50:38;26.70;42.90
43991;DHT22;29654;50.784;20.604;2022-07-12T13:55:42;26.80;42.50
43991;DHT22;29654;50.784;20.604;2022-07-12T14:00:45;26.70;42.10
43991;DHT22;29654;50.784;20.604;2022-07-12T14:05:50;26.70;41.80
43991;DHT22;29654;50.784;20.604;2022-07-12T14:10:53;26.60;41.20
43991;DHT22;29654;50.784;20.604;2022-07-12T14:15:56;26.60;42.00
43991;DHT22;29654;50.784;20.604;2022-07-12T14:21:00;26.60;41.90
43991;DHT22;29654;50.784;20.604;2022-07-12T14:26:03;26.70;41.40
43991;DHT22;29654;50.784;20.604;2022-07-12T14:31:08;26.70;41.30
43991;DHT22;29654;50.784;20.604;2022-07-12T14:36:12;26.70;41.50
43991;DHT22;29654;50.784;20.604;2022-07-12T14:41:15;26.80;41.10
43991;DHT22;29654;50.784;20.604;2022-07-12T14:46:18;26.90;40.90
43991;DHT22;29654;50.784;20.604;2022-07-12T14:51:22;27.00;41.00
43991;DHT22;29654;50.784;20.604;2022-07-12T14:56:25;27.10;40.60
43991;DHT22;29654;50.784;20.604;2022-07-12T15:01:28;27.20;40.60
43991;DHT22;29654;50.784;20.604;2022-07-12T15:06:33;27.30;40.30
43991;DHT22;29654;50.784;20.604;2022-07-12T15:11:36;27.30;39.90
43991;DHT22;29654;50.784;20.604;2022-07-12T15:16:39;27.40;39.90
43991;DHT22;29654;50.784;20.604;2022-07-12T15:21:44;27.30;39.60
43991;DHT22;29654;50.784;20.604;2022-07-12T15:26:47;27.40;39.60
43991;DHT22;29654;50.784;20.604;2022-07-12T15:31:50;27.40;39.70
43991;DHT22;29654;50.784;20.604;2022-07-12T15:36:54;27.40;39.80
43991;DHT22;29654;50.784;20.604;2022-07-12T15:41:57;27.40;39.50
43991;DHT22;29654;50.784;20.604;2022-07-12T15:47:00;27.30;39.20
43991;DHT22;29654;50.784;20.604;2022-07-12T15:52:06;27.30;39.30
43991;DHT22;29654;50.784;20.604;2022-07-12T15:57:26;27.20;39.40
43991;DHT22;29654;50.784;20.604;2022-07-12T16:02:29;27.20;40.10
43991;DHT22;29654;50.784;20.604;2022-07-12T16:07:33;27.20;40.60
43991;DHT22;29654;50.784;20.604;2022-07-12T16:12:39;27.30;40.60
43991;DHT22;29654;50.784;20.604;2022-07-12T16:17:42;27.30;41.00
43991;DHT22;29654;50.784;20.604;2022-07-12T16:22:47;27.40;40.90
43991;DHT22;29654;50.784;20.604;2022-07-12T16:27:50;27.40;40.90
43991;DHT22;29654;50.784;20.604;2022-07-12T16:32:54;27.40;40.90
43991;DHT22;29654;50.784;20.604;2022-07-12T16:37:59;27.30;40.70
43991;DHT22;29654;50.784;20.604;2022-07-12T16:43:02;27.30;40.80
43991;DHT22;29654;50.784;20.604;2022-07-12T16:48:05;27.20;41.10
43991;DHT22;29654;50.784;20.604;2022-07-12T16:53:09;27.20;41.30
43991;DHT22;29654;50.784;20.604;2022-07-12T16:58:12;27.20;41.40
43991;DHT22;29654;50.784;20.604;2022-07-12T17:03:15;27.10;41.50
43991;DHT22;29654;50.784;20.604;2022-07-12T17:08:20;27.10;42.00
43991;DHT22;29654;50.784;20.604;2022-07-12T17:13:23;27.00;41.80
43991;DHT22;29654;50.784;20.604;2022-07-12T17:18:26;27.00;41.80
43991;DHT22;29654;50.784;20.604;2022-07-12T17:23:31;26.80;41.70
43991;DHT22;29654;50.784;20.604;2022-07-12T17:28:34;26.80;41.60
43991;DHT22;29654;50.784;20.604;2022-07-12T17:33:37;26.70;41.60
43991;DHT22;29654;50.784;20.604;2022-07-12T17:38:41;26.60;41.50
43991;DHT22;29654;50.784;20.604;2022-07-12T17:43:45;26.60;41.60
43991;DHT22;29654;50.784;20.604;2022-07-12T17:48:48;26.40;41.50
43991;DHT22;29654;50.784;20.604;2022-07-12T17:53:52;26.40;41.70
43991;DHT22;29654;50.784;20.604;2022-07-12T17:58:55;26.40;41.90
43991;DHT22;29654;50.784;20.604;2022-07-12T18:03:59;26.30;41.80
43991;DHT22;29654;50.784;20.604;2022-07-12T18:09:04;26.30;42.50
43991;DHT22;29654;50.784;20.604;2022-07-12T18:14:07;26.20;41.80
43991;DHT22;29654;50.784;20.604;2022-07-12T18:19:27;26.20;42.00
43991;DHT22;29654;50.784;20.604;2022-07-12T18:24:31;26.10;42.10
43991;DHT22;29654;50.784;20.604;2022-07-12T18:29:34;26.10;42.10
43991;DHT22;29654;50.784;20.604;2022-07-12T18:34:37;26.00;42.20
43991;DHT22;29654;50.784;20.604;2022-07-12T18:39:41;26.00;42.30
43991;DHT22;29654;50.784;20.604;2022-07-12T18:44:44;25.90;42.40
43991;DHT22;29654;50.784;20.604;2022-07-12T18:49:47;25.80;42.50
43991;DHT22;29654;50.784;20.604;2022-07-12T18:54:52;25.80;42.70
43991;DHT22;29654;50.784;20.604;2022-07-12T18:59:55;25.70;42.80
43991;DHT22;29654;50.784;20.604;2022-07-12T19:04:58;25.70;42.90
43991;DHT22;29654;50.784;20.604;2022-07-12T19:10:03;25.60;43.00
43991;DHT22;29654;50.784;20.604;2022-07-12T19:15:08;25.50;43.00
43991;DHT22;29654;50.784;20.604;2022-07-12T19:20:11;25.40;43.10
43991;DHT22;29654;50.784;20.604;2022-07-12T19:25:15;25.40;43.00
43991;DHT22;29654;50.784;20.604;2022-07-12T19:30:18;25.30;42.90
43991;DHT22;29654;50.784;20.604;2022-07-12T19:35:22;25.20;42.80
43991;DHT22;29654;50.784;20.604;2022-07-12T19:40:26;25.10;42.50
43991;DHT22;29654;50.784;20.604;2022-07-12T19:45:29;24.90;42.70
43991;DHT22;29654;50.784;20.604;2022-07-12T19:50:32;24.70;42.50
43991;DHT22;29654;50.784;20.604;2022-07-12T19:55:36;24.60;42.30
43991;DHT22;29654;50.784;20.604;2022-07-12T20:00:39;24.60;42.40
43991;DHT22;29654;50.784;20.604;2022-07-12T20:05:42;24.50;42.20
43991;DHT22;29654;50.784;20.604;2022-07-12T20:10:47;24.50;42.20
43991;DHT22;29654;50.784;20.604;2022-07-12T20:15:49;24.50;41.80
43991;DHT22;29654;50.784;20.604;2022-07-12T20:20:52;24.40;41.80
43991;DHT22;29654;50.784;20.604;2022-07-12T20:25:57;24.50;41.30
43991;DHT22;29654;50.784;20.604;2022-07-12T20:31:00;24.40;41.30
43991;DHT22;29654;50.784;20.604;2022-07-12T20:36:03;24.30;40.70
43991;DHT22;29654;50.784;20.604;2022-07-12T20:41:08;24.30;40.50
43991;DHT22;29654;50.784;20.604;2022-07-12T20:46:11;24.30;40.80
43991;DHT22;29654;50.784;20.604;2022-07-12T20:51:14;24.30;40.70
43991;DHT22;29654;50.784;20.604;2022-07-12T20:56:19;24.30;40.70
43991;DHT22;29654;50.784;20.604;2022-07-12T21:01:22;24.30;40.60
43991;DHT22;29654;50.784;20.604;2022-07-12T21:06:26;24.30;40.60
43991;DHT22;29654;50.784;20.604;2022-07-12T21:11:31;24.20;40.50
43991;DHT22;29654;50.784;20.604;2022-07-12T21:16:37;24.20;40.30
43991;DHT22;29654;50.784;20.604;2022-07-12T21:21:40;24.20;40.30
43991;DHT22;29654;50.784;20.604;2022-07-12T21:26:45;24.20;40.60
43991;DHT22;29654;50.784;20.604;2022-07-12T21:31:48;24.20;40.40
43991;DHT22;29654;50.784;20.604;2022-07-12T21:36:52;24.20;40.50
43991;DHT22;29654;50.784;20.604;2022-07-12T21:41:56;24.10;40.40
43991;DHT22;29654;50.784;20.604;2022-07-12T21:46:59;24.10;40.20
43991;DHT22;29654;50.784;20.604;2022-07-12T21:52:02;24.10;40.50
43991;DHT22;29654;50.784;20.604;2022-07-12T21:57:06;24.00;40.50
43991;DHT22;29654;50.784;20.604;2022-07-12T22:02:10;24.00;40.50
43991;DHT22;29654;50.784;20.604;2022-07-12T22:07:13;24.00;40.60
43991;DHT22;29654;50.784;20.604;2022-07-12T22:12:17;24.00;40.50
43991;DHT22;29654;50.784;20.604;2022-07-12T22:17:20;23.90;40.60
43991;DHT22;29654;50.784;20.604;2022-07-12T22:22:23;23.90;40.60
43991;DHT22;29654;50.784;20.604;2022-07-12T22:27:27;23.80;40.70
43991;DHT22;29654;50.784;20.604;2022-07-12T22:32:30;23.80;40.60
43991;DHT22;29654;50.784;20.604;2022-07-12T22:37:33;23.80;40.90
43991;DHT22;29654;50.784;20.604;2022-07-12T22:42:37;23.70;41.00
43991;DHT22;29654;50.784;20.604;2022-07-12T22:47:40;23.70;41.10
43991;DHT22;29654;50.784;20.604;2022-07-12T22:52:43;23.70;41.10
43991;DHT22;29654;50.784;20.604;2022-07-12T22:57:47;23.70;41.20
43991;DHT22;29654;50.784;20.604;2022-07-12T23:02:50;23.60;41.20
43991;DHT22;29654;50.784;20.604;2022-07-12T23:07:53;23.60;41.20
43991;DHT22;29654;50.784;20.604;2022-07-12T23:12:58;23.50;41.20
43991;DHT22;29654;50.784;20.604;2022-07-12T23:18:01;23.50;41.30
43991;DHT22;29654;50.784;20.604;2022-07-12T23:23:03;23.40;41.50
43991;DHT22;29654;50.784;20.604;2022-07-12T23:28:08;23.40;41.60
43991;DHT22;29654;50.784;20.604;2022-07-12T23:33:11;23.40;41.50
43991;DHT22;29654;50.784;20.604;2022-07-12T23:38:14;23.40;41.70
43991;DHT22;29654;50.784;20.604;2022-07-12T23:43:18;23.30;41.60
43991;DHT22;29654;50.784;20.604;2022-07-12T23:48:21;23.30;41.70
43991;DHT22;29654;50.784;20.604;2022-07-12T23:53:24;23.20;41.90
43991;DHT22;29654;50.784;20.604;2022-07-12T23:58:29;23.20;42.00
